Ada, Michigan
Current Conditions -  °F | °C
As of 9:12 AM on Sunday 25 Jan 2015 (Local Time) from KGRR Reporting Station
Overcast Overcast  
Wind Chill:   Ceiling: 4600
Heat Index: 23°   Visibility: 10mi
Dew Point: 15°   Wind: 21mph
Humidity: 72%   Direction: 70°ENE
Pressure: 29.85"   Gusts: 25mph
Location:  42.95°N, 85.49°W
Report Text: KGRR 251412Z 07018G22KT 10SM SCT021 BKN046 OVC210 M05/M09 A2985 RMK AO2 T10501094
Loading
Personal Weather Stations






























Interactive Weather Map New forecast layout! Learn more

10-Day Weather Forecast

Advertisements
Track Severe Weather on mobile